Date,TemperatureHighF,TemperatureAvgF,TemperatureLowF,DewpointHighF,DewpointAvgF,DewpointLowF,HumidityHigh,HumidityAvg,HumidityLow,PressureMaxIn,PressureMinIn,WindSpeedMaxMPH,WindSpeedAvgMPH,GustSpeedMaxMPH,PrecipitationSumIn
2012-12-1,46,40,36,23,14,3,57,37,23,29.86,29.64,23,7,41,0.00
2012-12-2,59,43,34,20,4,-11,45,21,6,29.83,29.39,25,5,41,0.00
2012-12-3,41,33,26,23,8,-5,64,37,17,30.06,29.39,33,7,53,0.00
2012-12-4,43,34,26,17,2,-16,47,26,12,30.25,30.05,27,6,40,0.00
2012-12-5,50,42,36,24,20,10,57,42,22,30.08,29.64,32,7,42,0.00
2012-12-6,39,32,27,28,21,12,90,65,48,29.77,29.65,17,3,31,0.01
2012-12-7,34,27,18,17,14,10,87,59,39,29.80,29.67,28,6,43,0.00
2012-12-8,28,22,9,17,10,-2,83,61,43,29.81,29.59,21,8,32,0.00
2012-12-9,9,4,0,0,-6,-13,80,62,40,30.34,29.80,21,3,36,0.00
2012-12-10,17,10,3,6,-2,-11,80,56,42,30.25,30.07,43,12,56,0.00
2012-12-11,25,16,10,9,3,0,80,57,40,30.14,29.94,38,9,50,0.00
2012-12-12,40,32,24,8,3,-4,42,30,17,29.93,29.78,29,9,49,0.00
2012-12-13,43,33,29,6,2,-3,34,26,16,29.90,29.75,19,4,23,0.00
2012-12-14,36,31,27,19,8,0,69,41,25,29.75,29.34,16,2,28,0.00
2012-12-15,29,25,18,15,11,5,71,55,39,29.64,29.46,24,4,37,0.00
2012-12-16,21,18,15,11,5,1,78,57,50,29.86,29.60,39,7,39,0.00
2012-12-17,26,22,17,17,10,2,81,59,47,29.83,29.65,29,8,43,0.00
2012-12-18,25,19,10,19,13,6,87,78,57,29.76,29.63,8,2,14,0.03
2012-12-19,10,6,1,7,-2,-18,84,70,36,30.35,29.62,33,3,43,0.00
2012-12-20,29,20,2,-2,-10,-19,40,25,16,30.58,30.33,39,13,51,0.01
2012-12-21,43,33,26,-3,-8,-12,20,16,12,30.32,29.97,32,4,41,0.00
2012-12-22,43,35,31,-4,-16,-24,15,10,7,29.98,29.71,18,4,28,0.00
2012-12-23,33,28,21,16,1,-22,68,33,8,29.83,29.67,46,12,52,0.00
2012-12-24,30,23,9,17,9,0,85,58,30,29.77,29.58,28,3,30,0.00
2012-12-25,21,12,4,11,3,-3,82,70,44,30.18,29.73,8,2,13,0.01
2012-12-26,35,23,13,17,2,-14,83,42,19,30.09,29.48,16,3,24,0.01
2012-12-27,18,13,8,7,2,-3,72,60,47,29.90,29.46,14,4,19,0.00
2012-12-28,13,8,6,-2,-6,-8,60,52,43,30.33,29.90,23,8,32,0.00
2012-12-29,36,24,7,-8,-18,-31,49,15,7,30.38,29.86,15,2,23,0.01
2012-12-30,38,23,11,5,-4,-15,75,34,13,29.86,29.75,22,5,25,0.00
2012-12-31,16,10,6,10,4,0,84,78,67,30.15,29.83,5,1,8,0.00